createdAt,value
2022-10-18T00:00:41.507Z,26.52
2022-10-18T00:03:09.682Z,23.38
2022-10-18T00:05:36.416Z,27.23
2022-10-18T00:08:03.212Z,20.75
2022-10-18T00:10:29.808Z,31.52
2022-10-18T00:12:56.636Z,29.05
2022-10-18T00:15:23.228Z,20.33
2022-10-18T00:17:49.937Z,18.73
2022-10-18T00:20:18.143Z,18.23
2022-10-18T00:22:44.771Z,15.88
2022-10-18T00:25:11.576Z,17.98
2022-10-18T00:27:38.188Z,18.63
2022-10-18T00:30:06.243Z,18.63
2022-10-18T00:32:36.651Z,19.58
2022-10-18T00:35:04.311Z,18.27
2022-10-18T00:37:32.920Z,20.35
2022-10-18T00:39:59.563Z,26.55
2022-10-18T00:42:31.029Z,19.23
2022-10-18T00:45:06.292Z,17.42
2022-10-18T00:47:34.657Z,19.27
2022-10-18T00:50:04.560Z,16.60
2022-10-18T00:52:36.035Z,19.45
2022-10-18T00:55:03.843Z,18.48
2022-10-18T00:57:30.586Z,18.17
2022-10-18T00:59:57.375Z,18.42
2022-10-18T01:02:24.765Z,18.80
2022-10-18T01:04:51.689Z,20.25
2022-10-18T01:07:45.747Z,22.05
2022-10-18T01:10:31.090Z,19.10
2022-10-18T01:13:25.615Z,18.83
2022-10-18T01:16:00.306Z,17.60
2022-10-18T01:18:32.773Z,18.20
2022-10-18T01:21:16.898Z,18.05
2022-10-18T01:24:20.744Z,19.17
2022-10-18T01:27:27.756Z,18.67
2022-10-18T01:30:12.161Z,17.92
2022-10-18T01:32:44.762Z,19.40
2022-10-18T01:35:15.113Z,18.25
2022-10-18T01:37:45.234Z,20.05
2022-10-18T01:40:14.390Z,20.80
2022-10-18T01:42:41.489Z,21.23
2022-10-18T01:45:10.080Z,23.05
2022-10-18T01:47:37.222Z,19.95
2022-10-18T01:50:07.013Z,28.50
2022-10-18T01:52:33.863Z,25.75
2022-10-18T01:55:03.401Z,25.35
2022-10-18T01:57:36.895Z,26.00
2022-10-18T02:00:08.688Z,25.95
2022-10-18T02:02:44.080Z,22.42
2022-10-18T02:05:21.644Z,26.60
2022-10-18T02:08:05.602Z,20.63
2022-10-18T02:10:42.816Z,18.77
2022-10-18T02:13:11.518Z,17.75
2022-10-18T02:18:13.183Z,25.42
2022-10-18T02:20:42.286Z,20.10
2022-10-18T02:23:11.214Z,20.15
2022-10-18T02:25:39.140Z,23.58
2022-10-18T02:28:06.054Z,22.30
2022-10-18T02:30:37.807Z,20.45
2022-10-18T02:33:11.872Z,18.15
2022-10-18T02:35:45.582Z,20.88
2022-10-18T02:38:14.316Z,25.55
2022-10-18T02:43:07.589Z,24.90
2022-10-18T02:45:34.583Z,22.92
2022-10-18T02:48:01.395Z,29.05
2022-10-18T02:50:27.998Z,25.52
2022-10-18T02:52:55.935Z,22.60
2022-10-18T02:55:22.594Z,24.80
2022-10-18T02:57:49.207Z,36.92
2022-10-18T03:00:16.082Z,22.17
2022-10-18T03:02:42.724Z,23.48
2022-10-18T03:05:09.434Z,23.92
2022-10-18T03:07:35.983Z,23.92
2022-10-18T03:10:04.407Z,31.77
2022-10-18T03:12:30.991Z,25.05
2022-10-18T03:14:57.643Z,29.70
2022-10-18T03:17:24.442Z,30.02
2022-10-18T03:19:51.077Z,26.27
2022-10-18T03:22:17.930Z,25.10
2022-10-18T03:24:45.513Z,27.20
2022-10-18T03:27:13.560Z,23.02
2022-10-18T03:29:40.621Z,23.20
2022-10-18T03:32:07.307Z,29.30
2022-10-18T03:34:33.876Z,24.02
2022-10-18T03:37:03.360Z,30.48
2022-10-18T03:39:31.958Z,25.30
2022-10-18T03:41:58.627Z,22.85
2022-10-18T03:44:26.608Z,23.58
2022-10-18T03:46:53.236Z,22.58
2022-10-18T03:49:19.974Z,25.40
2022-10-18T03:51:46.658Z,25.02
2022-10-18T03:54:13.196Z,22.40
2022-10-18T03:56:39.807Z,19.80
2022-10-18T03:59:06.380Z,26.70
2022-10-18T04:01:34.421Z,24.67
2022-10-18T04:04:09.028Z,26.40
2022-10-18T04:06:35.658Z,23.23
2022-10-18T04:09:04.225Z,20.35
2022-10-18T04:11:33.531Z,21.20
2022-10-18T04:14:00.122Z,22.08
2022-10-18T04:16:26.773Z,22.83
2022-10-18T04:18:54.943Z,22.42
2022-10-18T04:23:48.875Z,22.83
2022-10-18T04:26:16.648Z,28.92
2022-10-18T04:28:44.207Z,29.03
2022-10-18T04:31:11.573Z,23.40
2022-10-18T04:33:39.025Z,20.67
2022-10-18T04:41:00.839Z,17.30
2022-10-18T04:43:27.479Z,19.83
2022-10-18T04:45:54.407Z,19.75
2022-10-18T04:48:21.352Z,17.55
2022-10-18T04:50:48.847Z,17.50
2022-10-18T04:53:18.059Z,20.85
2022-10-18T04:55:45.279Z,16.17
2022-10-18T04:58:12.536Z,18.00
2022-10-18T05:00:40.138Z,16.25
2022-10-18T05:03:07.359Z,16.97
2022-10-18T05:05:49.829Z,17.80
2022-10-18T05:08:22.268Z,17.52
2022-10-18T05:10:48.977Z,21.92
2022-10-18T05:13:15.944Z,16.70
2022-10-18T05:15:42.516Z,17.48
2022-10-18T05:18:09.084Z,15.30
2022-10-18T05:20:35.821Z,16.55
2022-10-18T05:23:02.379Z,17.45
2022-10-18T05:25:30.639Z,15.90
2022-10-18T05:27:57.294Z,17.67
2022-10-18T05:30:23.946Z,18.38
2022-10-18T05:32:50.551Z,16.10
2022-10-18T05:35:17.286Z,16.58
2022-10-18T05:37:43.882Z,17.83
2022-10-18T05:40:11.531Z,15.32
2022-10-18T05:42:40.190Z,19.25
2022-10-18T05:50:05.739Z,15.00
2022-10-18T05:52:32.730Z,17.13
2022-10-18T05:54:59.496Z,15.65
2022-10-18T05:57:26.352Z,17.38
2022-10-18T05:59:54.339Z,24.40
2022-10-18T06:02:21.020Z,21.27
2022-10-18T06:04:47.628Z,19.95
2022-10-18T06:07:14.444Z,21.02
2022-10-18T06:09:41.685Z,25.08
2022-10-18T06:12:09.109Z,19.17
2022-10-18T06:14:37.196Z,21.67
2022-10-18T06:17:05.418Z,18.55
2022-10-18T06:19:32.056Z,20.13
2022-10-18T06:21:58.642Z,17.58
2022-10-18T06:24:26.274Z,17.58
2022-10-18T06:26:52.914Z,16.70
2022-10-18T06:29:19.600Z,18.95
2022-10-18T06:31:46.156Z,16.73
2022-10-18T06:34:14.123Z,16.05
2022-10-18T06:36:41.179Z,15.05
2022-10-18T06:39:07.978Z,13.38
2022-10-18T06:41:34.633Z,15.48
2022-10-18T06:44:07.113Z,15.15
2022-10-18T06:46:34.129Z,13.88
2022-10-18T06:49:00.744Z,17.63
2022-10-18T06:51:28.727Z,18.77
2022-10-18T06:54:06.136Z,17.10
2022-10-18T06:56:39.833Z,20.30
2022-10-18T06:59:06.483Z,17.80
2022-10-18T07:01:33.424Z,18.60
2022-10-18T07:04:02.548Z,18.70
2022-10-18T07:06:33.288Z,19.35
2022-10-18T07:09:00.295Z,20.10
2022-10-18T07:11:27.381Z,18.10
2022-10-18T07:13:55.469Z,19.40
2022-10-18T07:16:22.134Z,20.95
2022-10-18T07:18:50.982Z,20.08
2022-10-18T07:21:20.322Z,21.60
2022-10-18T07:23:49.506Z,22.88
2022-10-18T07:26:17.710Z,25.55
2022-10-18T07:28:46.067Z,22.80
2022-10-18T07:31:13.614Z,24.83
2022-10-18T07:33:40.367Z,24.90
2022-10-18T07:36:09.237Z,22.35
2022-10-18T07:38:36.908Z,24.17
2022-10-18T07:41:09.251Z,22.20
2022-10-18T07:43:35.826Z,23.60
2022-10-18T07:46:05.309Z,23.42
2022-10-18T07:48:31.903Z,22.83
2022-10-18T07:50:59.796Z,22.70
2022-10-18T07:53:26.813Z,22.00
2022-10-18T07:55:57.721Z,21.10
2022-10-18T07:58:25.842Z,18.98
2022-10-18T08:00:52.771Z,16.92
2022-10-18T08:03:19.886Z,18.15
2022-10-18T08:05:52.024Z,15.70
2022-10-18T08:08:19.117Z,17.05
2022-10-18T08:10:45.730Z,19.15
2022-10-18T08:13:12.359Z,14.25
2022-10-18T08:15:40.451Z,15.00
2022-10-18T08:18:07.114Z,15.18
2022-10-18T08:20:33.781Z,13.45
2022-10-18T08:23:00.893Z,15.50
2022-10-18T08:25:28.928Z,16.48
2022-10-18T08:27:55.689Z,17.20
2022-10-18T08:30:23.468Z,13.18
2022-10-18T08:32:51.430Z,13.93
2022-10-18T08:35:18.262Z,13.68
2022-10-18T08:37:45.426Z,15.73
2022-10-18T08:40:13.833Z,13.70
2022-10-18T08:42:58.885Z,15.48
2022-10-18T08:45:40.878Z,13.10
2022-10-18T08:48:21.833Z,13.05
2022-10-18T08:50:50.979Z,14.80
2022-10-18T08:53:24.387Z,12.60
2022-10-18T08:55:54.995Z,14.10
2022-10-18T08:58:23.595Z,12.00
2022-10-18T09:00:58.146Z,13.75
2022-10-18T09:03:48.737Z,11.52
2022-10-18T09:06:25.466Z,13.00
2022-10-18T09:09:19.023Z,11.40
2022-10-18T09:12:01.906Z,9.88
2022-10-18T09:15:06.886Z,9.82
2022-10-18T09:17:44.013Z,10.07
2022-10-18T09:20:25.696Z,8.73
2022-10-18T09:22:55.228Z,11.20
2022-10-18T09:25:24.254Z,9.70
2022-10-18T09:27:59.830Z,10.30
2022-10-18T09:30:49.278Z,11.70
2022-10-18T09:33:28.742Z,9.63
2022-10-18T09:35:58.987Z,10.48
2022-10-18T09:38:30.875Z,7.72
2022-10-18T09:41:00.744Z,9.98
2022-10-18T09:43:39.826Z,8.93
2022-10-18T09:46:07.246Z,7.53
2022-10-18T09:48:41.643Z,9.93
2022-10-18T09:51:12.562Z,7.18
2022-10-18T09:53:44.466Z,9.00
2022-10-18T09:56:15.138Z,6.95
2022-10-18T09:58:44.314Z,7.97
2022-10-18T10:01:13.349Z,7.00
2022-10-18T10:03:40.051Z,10.73
2022-10-18T10:06:26.478Z,8.02
2022-10-18T10:09:00.467Z,7.82
2022-10-18T10:11:36.711Z,7.75
2022-10-18T10:14:13.289Z,5.90
2022-10-18T10:16:46.767Z,7.63
2022-10-18T10:19:18.890Z,7.43
2022-10-18T10:21:49.182Z,7.22
2022-10-18T10:24:31.201Z,6.88
2022-10-18T10:27:00.160Z,5.63
2022-10-18T10:32:13.264Z,5.97
2022-10-18T10:34:43.884Z,7.38
2022-10-18T10:37:28.684Z,5.22
2022-10-18T10:40:23.964Z,6.15
2022-10-18T10:43:18.245Z,5.57
2022-10-18T10:46:02.715Z,10.18
2022-10-18T10:48:33.711Z,7.13
2022-10-18T10:51:04.104Z,5.43
2022-10-18T10:53:39.968Z,7.75
2022-10-18T10:56:16.142Z,6.43
2022-10-18T10:58:43.074Z,5.88
2022-10-18T11:01:22.511Z,8.52
2022-10-18T11:03:50.868Z,5.82
2022-10-18T11:06:35.443Z,5.75
2022-10-18T11:09:10.315Z,8.82
2022-10-18T11:11:46.763Z,5.82
2022-10-18T11:14:26.662Z,4.97
2022-10-18T11:17:06.951Z,7.03
2022-10-18T11:19:41.260Z,6.22
2022-10-18T11:22:13.910Z,6.07
2022-10-18T11:24:47.329Z,5.50
2022-10-18T11:27:24.131Z,7.22
2022-10-18T11:30:07.727Z,4.85
2022-10-18T11:32:44.264Z,5.68
2022-10-18T11:35:31.884Z,6.65
2022-10-18T11:38:14.097Z,8.67
2022-10-18T11:40:51.212Z,7.32
2022-10-18T11:43:30.265Z,7.65
2022-10-18T11:46:06.957Z,7.82
2022-10-18T11:48:49.433Z,5.80
2022-10-18T11:51:35.363Z,7.65
2022-10-18T11:57:22.508Z,8.35
2022-10-18T12:00:01.288Z,7.20
2022-10-18T12:02:55.117Z,8.10
2022-10-18T12:05:23.963Z,8.43
2022-10-18T12:07:58.396Z,9.27
2022-10-18T12:10:38.055Z,7.25
2022-10-18T12:13:19.205Z,9.15
2022-10-18T12:15:47.596Z,8.38
2022-10-18T12:18:17.613Z,8.98
2022-10-18T12:20:49.422Z,7.72
2022-10-18T12:23:20.743Z,9.45
2022-10-18T12:25:53.926Z,7.13
2022-10-18T12:28:35.308Z,6.20
2022-10-18T12:31:08.513Z,7.50
2022-10-18T12:33:40.464Z,6.35
2022-10-18T12:36:22.934Z,6.95
2022-10-18T12:38:53.518Z,6.10
2022-10-18T12:41:23.476Z,4.85
2022-10-18T12:43:58.895Z,8.35
2022-10-18T12:46:43.877Z,6.25
2022-10-18T12:49:13.571Z,8.73
2022-10-18T12:51:51.845Z,5.30
2022-10-18T12:54:24.092Z,7.13
2022-10-18T12:56:50.974Z,7.38
2022-10-18T12:59:53.880Z,6.45
2022-10-18T13:02:31.483Z,5.55
2022-10-18T13:05:00.421Z,6.18
2022-10-18T13:07:41.069Z,6.70
2022-10-18T13:10:41.244Z,7.95
2022-10-18T13:13:39.680Z,5.88
2022-10-18T13:16:24.946Z,5.75
2022-10-18T13:18:57.757Z,4.75
2022-10-18T13:21:35.090Z,5.43
2022-10-18T13:24:25.975Z,5.18
2022-10-18T13:27:24.366Z,4.90
2022-10-18T13:30:12.305Z,5.20
2022-10-18T13:32:57.345Z,5.00
2022-10-18T13:35:44.762Z,5.53
2022-10-18T13:38:32.699Z,5.88
2022-10-18T13:41:03.536Z,6.47
2022-10-18T13:44:12.731Z,4.50
2022-10-18T13:47:13.195Z,4.10
2022-10-18T13:50:04.053Z,5.13
2022-10-18T13:52:50.119Z,5.35
2022-10-18T13:55:56.135Z,4.93
2022-10-18T13:58:32.948Z,5.25
2022-10-18T14:01:17.040Z,5.40
2022-10-18T14:04:03.011Z,5.00
2022-10-18T14:06:35.377Z,6.80
2022-10-18T14:09:14.119Z,3.45
2022-10-18T14:11:55.815Z,4.60
2022-10-18T14:14:29.935Z,6.30
2022-10-18T14:17:03.803Z,6.65
2022-10-18T14:19:38.479Z,4.82
2022-10-18T14:22:13.790Z,3.65
2022-10-18T14:24:44.922Z,4.32
2022-10-18T14:27:22.399Z,4.90
2022-10-18T14:29:50.992Z,3.60
2022-10-18T14:32:29.349Z,4.18
2022-10-18T14:35:20.675Z,7.15
2022-10-18T14:37:47.745Z,7.45
2022-10-18T14:40:37.947Z,4.78
2022-10-18T14:43:10.641Z,4.47
2022-10-18T14:45:37.426Z,3.95
2022-10-18T14:48:15.263Z,5.03
2022-10-18T14:50:44.715Z,4.30
2022-10-18T14:53:17.959Z,5.82
2022-10-18T14:55:52.944Z,5.60
2022-10-18T14:58:20.752Z,3.97
2022-10-18T15:00:50.512Z,3.07
2022-10-18T15:03:20.375Z,3.53
2022-10-18T15:06:03.566Z,4.45
2022-10-18T15:08:36.942Z,4.05
2022-10-18T15:11:10.507Z,3.72
2022-10-18T15:13:47.142Z,4.70
2022-10-18T15:16:17.570Z,3.38
2022-10-18T15:18:58.508Z,3.88
2022-10-18T15:21:25.954Z,4.22
2022-10-18T15:23:55.240Z,10.10
2022-10-18T15:26:26.544Z,4.82
2022-10-18T15:28:56.628Z,6.05
2022-10-18T15:31:26.843Z,3.13
2022-10-18T15:33:55.343Z,4.28
2022-10-18T15:36:29.373Z,5.82
2022-10-18T15:39:07.032Z,7.70
2022-10-18T15:41:46.116Z,7.23
2022-10-18T15:44:21.008Z,4.22
2022-10-18T15:46:48.826Z,6.47
2022-10-18T15:50:00.297Z,5.23
2022-10-18T15:52:39.692Z,4.15
2022-10-18T15:55:55.936Z,4.80
2022-10-18T15:58:27.485Z,7.07
2022-10-18T16:00:57.806Z,3.95
2022-10-18T16:03:25.448Z,4.72
2022-10-18T16:05:56.513Z,5.93
2022-10-18T16:08:24.398Z,5.30
2022-10-18T16:10:51.659Z,7.38
2022-10-18T16:13:18.896Z,5.30
2022-10-18T16:15:47.052Z,7.35
2022-10-18T16:18:16.180Z,6.28
2022-10-18T16:20:42.898Z,6.05
2022-10-18T16:23:16.372Z,6.07
2022-10-18T16:25:43.165Z,7.30
2022-10-18T16:28:13.453Z,4.93
2022-10-18T16:30:40.931Z,7.70
2022-10-18T16:33:08.915Z,5.00
2022-10-18T16:35:35.876Z,6.07
2022-10-18T16:38:02.816Z,7.20
2022-10-18T16:40:29.468Z,7.22
2022-10-18T16:42:56.104Z,7.30
2022-10-18T16:45:22.725Z,5.60
2022-10-18T16:47:49.374Z,5.30
2022-10-18T16:50:19.715Z,9.10
2022-10-18T16:52:46.535Z,7.63
2022-10-18T16:55:21.258Z,6.82
2022-10-18T16:57:50.314Z,7.40
2022-10-18T17:00:26.179Z,6.25
2022-10-18T17:02:53.747Z,5.15
2022-10-18T17:05:22.683Z,7.72
2022-10-18T17:07:49.716Z,7.15
2022-10-18T17:10:18.991Z,5.68
2022-10-18T17:12:45.962Z,5.40
2022-10-18T17:15:13.071Z,7.20
2022-10-18T17:17:39.716Z,7.13
2022-10-18T17:20:08.131Z,7.57
2022-10-18T17:22:36.238Z,8.60
2022-10-18T17:25:03.076Z,7.03
2022-10-18T17:27:29.810Z,8.27
2022-10-18T17:29:57.536Z,5.95
2022-10-18T17:32:24.230Z,7.40
2022-10-18T17:34:50.910Z,7.88
2022-10-18T17:37:17.562Z,5.05
2022-10-18T17:39:45.644Z,8.77
2022-10-18T17:42:12.459Z,7.22
2022-10-18T17:44:39.149Z,6.38
2022-10-18T17:47:05.776Z,9.77
2022-10-18T17:49:32.439Z,6.80
2022-10-18T17:52:02.086Z,6.55
2022-10-18T17:54:31.091Z,10.10
2022-10-18T17:56:59.069Z,8.38
2022-10-18T17:59:26.158Z,8.88
2022-10-18T18:01:53.779Z,6.53
2022-10-18T18:04:20.426Z,5.07
2022-10-18T18:06:49.038Z,5.25
2022-10-18T18:09:16.572Z,8.07
2022-10-18T18:11:45.002Z,8.40
2022-10-18T18:14:13.274Z,7.50
2022-10-18T18:16:41.701Z,7.32
2022-10-18T18:19:10.053Z,6.85
2022-10-18T18:21:39.417Z,6.00
2022-10-18T18:24:07.057Z,7.32
2022-10-18T18:26:38.284Z,8.85
2022-10-18T18:29:05.090Z,6.80
2022-10-18T18:31:38.791Z,7.20
2022-10-18T18:34:09.584Z,6.45
2022-10-18T18:36:36.750Z,9.73
2022-10-18T18:39:05.546Z,7.13
2022-10-18T18:41:33.493Z,8.05
2022-10-18T18:44:04.186Z,9.50
2022-10-18T18:46:36.613Z,7.65
2022-10-18T18:49:03.614Z,8.52
2022-10-18T18:51:30.268Z,9.48
2022-10-18T18:53:59.870Z,8.52
2022-10-18T18:56:29.066Z,9.10
2022-10-18T18:58:56.880Z,7.38
2022-10-18T19:01:25.794Z,8.73
2022-10-18T19:03:55.714Z,8.48
2022-10-18T19:06:24.151Z,7.20
2022-10-18T19:08:54.139Z,7.53
2022-10-18T19:11:22.331Z,10.02
2022-10-18T19:13:49.408Z,8.02
2022-10-18T19:16:20.113Z,8.40
2022-10-18T19:18:59.201Z,8.70
2022-10-18T19:21:28.270Z,9.50
2022-10-18T19:23:56.565Z,7.43
2022-10-18T19:26:29.933Z,8.30
2022-10-18T19:29:01.704Z,9.82
2022-10-18T19:31:28.775Z,7.30
2022-10-18T19:33:59.686Z,8.10
2022-10-18T19:36:29.132Z,8.43
2022-10-18T19:38:55.991Z,7.20
2022-10-18T19:43:55.798Z,9.18
2022-10-18T19:46:22.924Z,9.40
2022-10-18T19:48:49.613Z,7.68
2022-10-18T19:51:20.248Z,9.02
2022-10-18T19:53:52.123Z,7.10
2022-10-18T19:56:21.755Z,9.45
2022-10-18T19:58:49.475Z,9.98
2022-10-18T20:01:17.568Z,9.30
2022-10-18T20:03:45.128Z,11.57
2022-10-18T20:06:12.213Z,10.23
2022-10-18T20:08:39.383Z,10.43
2022-10-18T20:11:09.143Z,10.90
2022-10-18T20:13:36.416Z,11.48
2022-10-18T20:16:04.999Z,11.25
2022-10-18T20:18:31.622Z,8.98
2022-10-18T20:20:58.283Z,9.15
2022-10-18T20:23:25.016Z,7.63
2022-10-18T20:25:59.032Z,8.07
2022-10-18T20:28:27.611Z,9.70
2022-10-18T20:31:02.320Z,10.32
2022-10-18T20:33:29.024Z,8.18
2022-10-18T20:35:55.827Z,7.63
2022-10-18T20:38:22.684Z,12.82
2022-10-18T20:40:49.459Z,5.75
2022-10-18T20:43:16.051Z,9.63
2022-10-18T20:45:43.979Z,8.65
2022-10-18T20:48:10.636Z,11.37
2022-10-18T20:50:40.945Z,6.75
2022-10-18T20:53:08.337Z,10.80
2022-10-18T20:55:36.435Z,9.27
2022-10-18T20:58:03.084Z,9.93
2022-10-18T21:00:29.650Z,7.53
2022-10-18T21:02:59.122Z,8.07
2022-10-18T21:05:25.940Z,9.05
2022-10-18T21:07:52.845Z,9.10
2022-10-18T21:10:19.398Z,9.70
2022-10-18T21:12:48.023Z,10.48
2022-10-18T21:15:15.513Z,7.15
2022-10-18T21:17:42.295Z,9.20
2022-10-18T21:20:11.578Z,7.28
2022-10-18T21:22:38.267Z,6.97
2022-10-18T21:25:05.963Z,9.65
2022-10-18T21:27:32.577Z,9.20
2022-10-18T21:29:59.171Z,9.63
2022-10-18T21:32:25.770Z,10.63
2022-10-18T21:34:52.551Z,6.40
2022-10-18T21:37:20.765Z,7.82
2022-10-18T21:39:47.643Z,8.30
2022-10-18T21:42:14.199Z,10.10
2022-10-18T21:44:40.783Z,9.02
2022-10-18T21:47:08.467Z,8.85
2022-10-18T21:49:35.192Z,9.82
2022-10-18T21:52:05.462Z,5.97
2022-10-18T21:54:33.433Z,6.25
2022-10-18T21:56:59.988Z,7.97
2022-10-18T21:59:26.627Z,8.93
2022-10-18T22:01:53.362Z,6.53
2022-10-18T22:04:21.867Z,8.48
2022-10-18T22:06:48.826Z,10.48
2022-10-18T22:09:15.687Z,9.98
2022-10-18T22:11:46.164Z,8.15
2022-10-18T22:14:12.916Z,6.80
2022-10-18T22:16:39.588Z,7.38
2022-10-18T22:19:07.212Z,8.85
2022-10-18T22:21:34.767Z,6.75
2022-10-18T22:24:05.529Z,6.35
2022-10-18T22:26:35.311Z,7.38
2022-10-18T22:29:06.299Z,7.18
2022-10-18T22:31:35.393Z,7.63
2022-10-18T22:34:04.239Z,7.28
2022-10-18T22:38:59.999Z,6.63
2022-10-18T22:41:26.680Z,7.40
2022-10-18T22:43:53.522Z,5.07
2022-10-18T22:46:21.632Z,5.88
2022-10-18T22:48:48.660Z,7.88
2022-10-18T22:51:15.509Z,6.38
2022-10-18T22:53:42.127Z,5.93
2022-10-18T22:56:11.956Z,6.95
2022-10-18T22:58:38.677Z,6.80
2022-10-18T23:01:07.761Z,7.28
2022-10-18T23:03:36.478Z,7.88
2022-10-18T23:06:04.363Z,9.20
2022-10-18T23:08:31.950Z,7.15
2022-10-18T23:10:59.663Z,6.55
2022-10-18T23:13:27.404Z,6.32
2022-10-18T23:16:04.370Z,6.40
2022-10-18T23:18:32.059Z,6.20
2022-10-18T23:21:04.245Z,7.40
2022-10-18T23:23:34.700Z,6.35
2022-10-18T23:26:03.150Z,6.38
2022-10-18T23:28:29.787Z,10.50
2022-10-18T23:30:56.457Z,9.52
2022-10-18T23:33:23.024Z,8.80
2022-10-18T23:35:49.675Z,10.38
2022-10-18T23:38:18.028Z,9.30
2022-10-18T23:40:44.704Z,7.75
2022-10-18T23:43:11.326Z,7.22
2022-10-18T23:45:38.002Z,9.32
2022-10-18T23:48:04.838Z,7.45
2022-10-18T23:50:31.579Z,8.73
2022-10-18T23:52:58.210Z,8.95
2022-10-18T23:55:26.166Z,8.20
2022-10-18T23:57:53.086Z,8.53
